sensor_id;sensor_type;location;lat;lon;timestamp;pressure;altitude;pressure_sealevel;temperature;humidity
76753;BME280;65687;51.308;16.916;2023-03-31T00:02:53;98828.28;;;8.47;78.14
76753;BME280;65687;51.308;16.916;2023-03-31T00:07:57;98826.30;;;8.48;78.16
76753;BME280;65687;51.308;16.916;2023-03-31T00:13:01;98821.03;;;8.47;77.94
76753;BME280;65687;51.308;16.916;2023-03-31T00:18:03;98820.08;;;8.45;77.94
76753;BME280;65687;51.308;16.916;2023-03-31T00:23:05;98823.36;;;8.41;77.90
76753;BME280;65687;51.308;16.916;2023-03-31T00:28:10;98814.86;;;8.33;77.88
76753;BME280;65687;51.308;16.916;2023-03-31T00:33:12;98813.27;;;8.30;77.78
76753;BME280;65687;51.308;16.916;2023-03-31T00:38:14;98813.97;;;8.21;77.27
76753;BME280;65687;51.308;16.916;2023-03-31T00:43:31;98809.77;;;8.07;77.37
76753;BME280;65687;51.308;16.916;2023-03-31T00:48:35;98802.67;;;7.83;77.41
76753;BME280;65687;51.308;16.916;2023-03-31T00:53:37;98796.92;;;7.46;78.44
76753;BME280;65687;51.308;16.916;2023-03-31T00:58:40;98799.94;;;7.24;78.87
76753;BME280;65687;51.308;16.916;2023-03-31T01:03:44;98797.70;;;7.21;79.22
76753;BME280;65687;51.308;16.916;2023-03-31T01:08:48;98787.45;;;7.23;79.21
76753;BME280;65687;51.308;16.916;2023-03-31T01:13:53;98784.36;;;7.14;79.21
76753;BME280;65687;51.308;16.916;2023-03-31T01:18:56;98780.02;;;7.11;79.53
76753;BME280;65687;51.308;16.916;2023-03-31T01:45:36;98762.87;;;6.84;80.17
76753;BME280;65687;51.308;16.916;2023-03-31T01:50:59;98759.97;;;6.86;79.98
76753;BME280;65687;51.308;16.916;2023-03-31T01:56:20;98757.23;;;6.85;80.17
76753;BME280;65687;51.308;16.916;2023-03-31T02:01:30;98753.69;;;6.74;80.39
76753;BME280;65687;51.308;16.916;2023-03-31T02:06:37;98750.77;;;6.81;80.34
76753;BME280;65687;51.308;16.916;2023-03-31T02:11:41;98753.84;;;6.87;80.56
76753;BME280;65687;51.308;16.916;2023-03-31T02:16:45;98745.79;;;6.90;80.60
76753;BME280;65687;51.308;16.916;2023-03-31T02:21:50;98737.91;;;6.95;80.81
76753;BME280;65687;51.308;16.916;2023-03-31T02:26:56;98732.36;;;7.03;80.65
76753;BME280;65687;51.308;16.916;2023-03-31T02:37:28;98722.68;;;7.10;80.91
76753;BME280;65687;51.308;16.916;2023-03-31T02:42:31;98711.02;;;7.09;80.92
76753;BME280;65687;51.308;16.916;2023-03-31T02:47:33;98706.49;;;7.11;80.78
76753;BME280;65687;51.308;16.916;2023-03-31T03:03:34;98689.28;;;7.02;80.87
76753;BME280;65687;51.308;16.916;2023-03-31T03:09:02;98688.77;;;6.99;81.06
76753;BME280;65687;51.308;16.916;2023-03-31T03:14:17;98686.94;;;7.02;80.98
76753;BME280;65687;51.308;16.916;2023-03-31T03:19:22;98674.17;;;7.05;80.72
76753;BME280;65687;51.308;16.916;2023-03-31T03:24:24;98672.55;;;7.03;80.70
76753;BME280;65687;51.308;16.916;2023-03-31T03:29:29;98677.33;;;6.96;80.53
76753;BME280;65687;51.308;16.916;2023-03-31T03:34:31;98681.23;;;6.85;80.46
76753;BME280;65687;51.308;16.916;2023-03-31T03:39:32;98684.98;;;6.76;80.53
76753;BME280;65687;51.308;16.916;2023-03-31T03:44:34;98684.81;;;6.59;80.52
76753;BME280;65687;51.308;16.916;2023-03-31T03:49:35;98684.89;;;6.41;80.82
76753;BME280;65687;51.308;16.916;2023-03-31T03:54:36;98678.20;;;6.31;81.05
76753;BME280;65687;51.308;16.916;2023-03-31T03:59:38;98676.55;;;6.29;80.77
76753;BME280;65687;51.308;16.916;2023-03-31T04:04:39;98676.27;;;6.22;80.57
76753;BME280;65687;51.308;16.916;2023-03-31T04:09:41;98673.41;;;6.19;80.63
76753;BME280;65687;51.308;16.916;2023-03-31T04:14:43;98671.35;;;6.18;80.64
76753;BME280;65687;51.308;16.916;2023-03-31T04:19:44;98671.09;;;6.09;80.47
76753;BME280;65687;51.308;16.916;2023-03-31T04:24:50;98664.65;;;6.05;80.60
76753;BME280;65687;51.308;16.916;2023-03-31T04:29:53;98655.61;;;5.92;80.89
76753;BME280;65687;51.308;16.916;2023-03-31T04:34:57;98648.02;;;5.86;81.23
76753;BME280;65687;51.308;16.916;2023-03-31T04:40:04;98646.22;;;5.95;81.31
76753;BME280;65687;51.308;16.916;2023-03-31T04:45:09;98642.30;;;5.91;81.62
76753;BME280;65687;51.308;16.916;2023-03-31T04:50:11;98637.20;;;5.95;81.74
76753;BME280;65687;51.308;16.916;2023-03-31T04:55:12;98631.60;;;5.99;81.68
76753;BME280;65687;51.308;16.916;2023-03-31T05:00:14;98627.20;;;6.01;81.71
76753;BME280;65687;51.308;16.916;2023-03-31T05:05:16;98630.94;;;6.02;81.65
76753;BME280;65687;51.308;16.916;2023-03-31T05:10:17;98624.54;;;6.01;81.64
76753;BME280;65687;51.308;16.916;2023-03-31T05:15:19;98622.36;;;5.91;81.79
76753;BME280;65687;51.308;16.916;2023-03-31T05:20:21;98621.77;;;5.85;81.95
76753;BME280;65687;51.308;16.916;2023-03-31T05:25:22;98619.55;;;5.89;82.08
76753;BME280;65687;51.308;16.916;2023-03-31T05:30:24;98614.48;;;5.99;82.47
76753;BME280;65687;51.308;16.916;2023-03-31T05:35:26;98610.46;;;6.12;82.28
76753;BME280;65687;51.308;16.916;2023-03-31T05:40:28;98608.27;;;6.26;82.25
76753;BME280;65687;51.308;16.916;2023-03-31T05:45:29;98602.27;;;6.42;82.27
76753;BME280;65687;51.308;16.916;2023-03-31T05:50:31;98602.92;;;6.56;81.99
76753;BME280;65687;51.308;16.916;2023-03-31T05:55:35;98591.54;;;6.70;81.62
76753;BME280;65687;51.308;16.916;2023-03-31T06:00:36;98589.87;;;6.84;81.23
76753;BME280;65687;51.308;16.916;2023-03-31T06:05:38;98590.52;;;6.98;80.86
76753;BME280;65687;51.308;16.916;2023-03-31T06:10:41;98587.75;;;7.08;80.42
76753;BME280;65687;51.308;16.916;2023-03-31T06:15:52;98582.13;;;7.15;80.32
76753;BME280;65687;51.308;16.916;2023-03-31T06:20:54;98583.15;;;7.21;80.47
76753;BME280;65687;51.308;16.916;2023-03-31T06:26:07;98581.29;;;7.30;80.11
76753;BME280;65687;51.308;16.916;2023-03-31T06:31:14;98581.96;;;7.42;80.24
76753;BME280;65687;51.308;16.916;2023-03-31T06:36:19;98580.08;;;7.56;80.05
76753;BME280;65687;51.308;16.916;2023-03-31T06:41:21;98576.58;;;7.71;79.90
76753;BME280;65687;51.308;16.916;2023-03-31T06:46:23;98570.34;;;7.86;79.73
76753;BME280;65687;51.308;16.916;2023-03-31T06:51:24;98560.42;;;7.98;79.61
76753;BME280;65687;51.308;16.916;2023-03-31T06:56:26;98558.75;;;8.11;79.67
76753;BME280;65687;51.308;16.916;2023-03-31T07:01:28;98555.23;;;8.27;79.51
76753;BME280;65687;51.308;16.916;2023-03-31T07:06:29;98548.11;;;8.44;79.20
76753;BME280;65687;51.308;16.916;2023-03-31T07:11:31;98541.17;;;8.63;78.90
76753;BME280;65687;51.308;16.916;2023-03-31T07:16:32;98539.12;;;8.82;78.64
76753;BME280;65687;51.308;16.916;2023-03-31T07:21:34;98532.60;;;9.03;78.12
76753;BME280;65687;51.308;16.916;2023-03-31T07:26:36;98522.41;;;9.21;77.76
76753;BME280;65687;51.308;16.916;2023-03-31T07:31:37;98509.83;;;9.36;77.31
76753;BME280;65687;51.308;16.916;2023-03-31T07:36:39;98505.48;;;9.51;77.10
76753;BME280;65687;51.308;16.916;2023-03-31T07:41:40;98501.29;;;9.66;76.55
76753;BME280;65687;51.308;16.916;2023-03-31T07:46:42;98501.04;;;9.78;76.49
76753;BME280;65687;51.308;16.916;2023-03-31T07:51:43;98504.75;;;9.89;76.41
76753;BME280;65687;51.308;16.916;2023-03-31T07:56:44;98494.38;;;10.09;76.17
76753;BME280;65687;51.308;16.916;2023-03-31T08:01:46;98487.63;;;10.43;75.21
76753;BME280;65687;51.308;16.916;2023-03-31T08:06:47;98485.81;;;10.67;74.24
76753;BME280;65687;51.308;16.916;2023-03-31T08:11:51;98475.89;;;10.96;73.17
76753;BME280;65687;51.308;16.916;2023-03-31T08:16:52;98466.39;;;11.33;72.33
76753;BME280;65687;51.308;16.916;2023-03-31T08:21:55;98466.44;;;11.76;70.60
76753;BME280;65687;51.308;16.916;2023-03-31T08:26:57;98467.68;;;12.05;69.65
76753;BME280;65687;51.308;16.916;2023-03-31T08:31:58;98458.59;;;12.19;69.63
76753;BME280;65687;51.308;16.916;2023-03-31T08:37:00;98451.19;;;12.26;69.10
76753;BME280;65687;51.308;16.916;2023-03-31T08:42:41;98446.54;;;12.28;68.93
76753;BME280;65687;51.308;16.916;2023-03-31T08:47:46;98432.25;;;12.31;68.64
76753;BME280;65687;51.308;16.916;2023-03-31T08:52:55;98416.35;;;12.32;68.09
76753;BME280;65687;51.308;16.916;2023-03-31T08:58:18;98414.44;;;12.30;67.94
76753;BME280;65687;51.308;16.916;2023-03-31T09:09:24;98409.10;;;12.32;67.48
76753;BME280;65687;51.308;16.916;2023-03-31T09:25:12;98385.77;;;12.53;67.26
76753;BME280;65687;51.308;16.916;2023-03-31T09:30:20;98385.02;;;12.60;66.72
76753;BME280;65687;51.308;16.916;2023-03-31T09:35:25;98379.57;;;12.65;66.60
76753;BME280;65687;51.308;16.916;2023-03-31T09:40:27;98376.02;;;12.65;66.57
76753;BME280;65687;51.308;16.916;2023-03-31T09:45:29;98371.38;;;12.68;66.71
76753;BME280;65687;51.308;16.916;2023-03-31T09:50:35;98359.00;;;12.67;66.61
76753;BME280;65687;51.308;16.916;2023-03-31T09:55:44;98347.70;;;12.75;66.46
76753;BME280;65687;51.308;16.916;2023-03-31T10:00:59;98337.94;;;12.82;66.53
76753;BME280;65687;51.308;16.916;2023-03-31T10:06:09;98328.63;;;12.87;66.00
76753;BME280;65687;51.308;16.916;2023-03-31T10:11:12;98321.23;;;12.84;66.03
76753;BME280;65687;51.308;16.916;2023-03-31T10:16:21;98317.36;;;12.85;66.24
76753;BME280;65687;51.308;16.916;2023-03-31T10:21:25;98314.96;;;12.95;66.10
76753;BME280;65687;51.308;16.916;2023-03-31T10:26:27;98304.39;;;13.09;66.16
76753;BME280;65687;51.308;16.916;2023-03-31T10:31:34;98298.92;;;13.19;64.74
76753;BME280;65687;51.308;16.916;2023-03-31T10:36:37;98295.02;;;13.18;64.52
76753;BME280;65687;51.308;16.916;2023-03-31T10:41:39;98288.43;;;13.25;65.26
76753;BME280;65687;51.308;16.916;2023-03-31T10:46:46;98283.17;;;13.30;64.92
76753;BME280;65687;51.308;16.916;2023-03-31T10:51:56;98272.39;;;13.33;64.84
76753;BME280;65687;51.308;16.916;2023-03-31T10:57:00;98267.38;;;13.47;64.51
76753;BME280;65687;51.308;16.916;2023-03-31T11:07:37;98240.17;;;13.75;64.06
76753;BME280;65687;51.308;16.916;2023-03-31T11:23:14;98212.68;;;14.15;62.33
76753;BME280;65687;51.308;16.916;2023-03-31T11:44:29;98171.36;;;14.70;60.30
76753;BME280;65687;51.308;16.916;2023-03-31T11:50:00;98160.56;;;14.81;60.30
76753;BME280;65687;51.308;16.916;2023-03-31T11:55:24;98163.77;;;14.80;60.04
76753;BME280;65687;51.308;16.916;2023-03-31T12:00:31;98159.20;;;14.66;59.92
76753;BME280;65687;51.308;16.916;2023-03-31T12:05:39;98156.84;;;14.51;59.27
76753;BME280;65687;51.308;16.916;2023-03-31T12:10:46;98148.13;;;14.35;59.63
76753;BME280;65687;51.308;16.916;2023-03-31T12:15:57;98142.81;;;14.26;59.95
76753;BME280;65687;51.308;16.916;2023-03-31T12:21:03;98139.52;;;14.16;60.75
76753;BME280;65687;51.308;16.916;2023-03-31T12:31:27;98132.27;;;13.90;61.55
76753;BME280;65687;51.308;16.916;2023-03-31T12:52:03;98108.90;;;13.19;66.04
76753;BME280;65687;51.308;16.916;2023-03-31T13:12:23;98077.55;;;12.58;69.46
76753;BME280;65687;51.308;16.916;2023-03-31T13:17:34;98073.40;;;12.44;70.68
76753;BME280;65687;51.308;16.916;2023-03-31T13:22:36;98072.81;;;12.42;70.97
76753;BME280;65687;51.308;16.916;2023-03-31T13:27:48;98063.20;;;12.43;70.67
76753;BME280;65687;51.308;16.916;2023-03-31T13:33:03;98045.96;;;12.44;70.93
76753;BME280;65687;51.308;16.916;2023-03-31T13:38:08;98037.23;;;12.47;71.97
76753;BME280;65687;51.308;16.916;2023-03-31T13:48:38;98020.38;;;12.37;72.40
76753;BME280;65687;51.308;16.916;2023-03-31T13:54:03;98011.55;;;12.31;73.78
76753;BME280;65687;51.308;16.916;2023-03-31T14:10:21;97994.91;;;12.00;75.72
76753;BME280;65687;51.308;16.916;2023-03-31T14:15:23;97985.84;;;11.97;76.29
76753;BME280;65687;51.308;16.916;2023-03-31T14:20:29;97973.91;;;11.88;76.73
76753;BME280;65687;51.308;16.916;2023-03-31T14:31:04;97963.17;;;11.64;76.84
76753;BME280;65687;51.308;16.916;2023-03-31T14:36:37;97948.66;;;11.54;77.45
76753;BME280;65687;51.308;16.916;2023-03-31T14:41:42;97942.59;;;11.49;77.82
76753;BME280;65687;51.308;16.916;2023-03-31T14:46:45;97935.29;;;11.48;78.05
76753;BME280;65687;51.308;16.916;2023-03-31T14:51:47;97928.79;;;11.46;78.37
76753;BME280;65687;51.308;16.916;2023-03-31T14:56:53;97920.28;;;11.49;78.92
76753;BME280;65687;51.308;16.916;2023-03-31T15:01:58;97912.66;;;11.54;78.83
76753;BME280;65687;51.308;16.916;2023-03-31T15:07:01;97904.31;;;11.46;78.80
76753;BME280;65687;51.308;16.916;2023-03-31T15:12:12;97893.54;;;11.37;79.32
76753;BME280;65687;51.308;16.916;2023-03-31T15:17:21;97887.30;;;11.26;79.56
76753;BME280;65687;51.308;16.916;2023-03-31T15:22:25;97884.23;;;11.20;79.63
76753;BME280;65687;51.308;16.916;2023-03-31T15:27:33;97884.66;;;11.24;80.00
76753;BME280;65687;51.308;16.916;2023-03-31T15:32:37;97887.41;;;11.30;80.53
76753;BME280;65687;51.308;16.916;2023-03-31T15:37:41;97887.41;;;11.36;80.23
76753;BME280;65687;51.308;16.916;2023-03-31T15:42:44;97888.70;;;11.40;80.21
76753;BME280;65687;51.308;16.916;2023-03-31T15:47:51;97891.32;;;11.42;80.23
76753;BME280;65687;51.308;16.916;2023-03-31T15:52:54;97887.53;;;11.40;80.72
76753;BME280;65687;51.308;16.916;2023-03-31T15:57:59;97882.75;;;11.38;80.78
76753;BME280;65687;51.308;16.916;2023-03-31T16:03:04;97886.43;;;11.36;81.00
76753;BME280;65687;51.308;16.916;2023-03-31T16:08:27;97887.38;;;11.29;81.27
76753;BME280;65687;51.308;16.916;2023-03-31T16:13:31;97889.47;;;11.20;81.69
76753;BME280;65687;51.308;16.916;2023-03-31T16:18:39;97884.56;;;11.15;81.63
76753;BME280;65687;51.308;16.916;2023-03-31T16:23:43;97878.13;;;11.08;81.73
76753;BME280;65687;51.308;16.916;2023-03-31T16:28:52;97876.84;;;11.00;81.34
76753;BME280;65687;51.308;16.916;2023-03-31T16:33:55;97870.52;;;10.98;81.20
76753;BME280;65687;51.308;16.916;2023-03-31T16:38:57;97859.55;;;11.04;81.19
76753;BME280;65687;51.308;16.916;2023-03-31T16:44:00;97853.73;;;11.12;80.59
76753;BME280;65687;51.308;16.916;2023-03-31T16:49:02;97850.34;;;11.11;80.97
76753;BME280;65687;51.308;16.916;2023-03-31T16:54:03;97846.08;;;11.10;81.21
76753;BME280;65687;51.308;16.916;2023-03-31T16:59:05;97841.70;;;11.10;81.04
76753;BME280;65687;51.308;16.916;2023-03-31T17:04:08;97825.02;;;11.07;80.97
76753;BME280;65687;51.308;16.916;2023-03-31T17:09:10;97818.70;;;10.94;81.54
76753;BME280;65687;51.308;16.916;2023-03-31T17:14:11;97816.80;;;10.82;81.78
76753;BME280;65687;51.308;16.916;2023-03-31T17:19:13;97812.34;;;10.74;82.15
76753;BME280;65687;51.308;16.916;2023-03-31T17:24:14;97807.66;;;10.70;82.27
76753;BME280;65687;51.308;16.916;2023-03-31T17:29:16;97806.52;;;10.55;82.68
76753;BME280;65687;51.308;16.916;2023-03-31T17:34:17;97804.60;;;10.38;83.19
76753;BME280;65687;51.308;16.916;2023-03-31T17:39:19;97803.32;;;10.25;83.74
76753;BME280;65687;51.308;16.916;2023-03-31T17:44:20;97808.63;;;10.18;83.82
76753;BME280;65687;51.308;16.916;2023-03-31T17:49:22;97814.05;;;10.28;83.54
76753;BME280;65687;51.308;16.916;2023-03-31T17:54:25;97807.98;;;10.28;83.64
76753;BME280;65687;51.308;16.916;2023-03-31T17:59:26;97810.35;;;10.19;83.75
76753;BME280;65687;51.308;16.916;2023-03-31T18:04:28;97810.97;;;10.18;83.69
76753;BME280;65687;51.308;16.916;2023-03-31T18:09:30;97815.16;;;10.26;83.65
76753;BME280;65687;51.308;16.916;2023-03-31T18:14:31;97819.31;;;10.28;83.44
76753;BME280;65687;51.308;16.916;2023-03-31T18:19:33;97827.79;;;10.25;83.41
76753;BME280;65687;51.308;16.916;2023-03-31T18:24:35;97829.77;;;10.19;83.45
76753;BME280;65687;51.308;16.916;2023-03-31T18:29:38;97829.42;;;10.15;83.47
76753;BME280;65687;51.308;16.916;2023-03-31T18:34:40;97828.11;;;10.11;82.86
76753;BME280;65687;51.308;16.916;2023-03-31T18:39:41;97823.98;;;10.14;82.91
76753;BME280;65687;51.308;16.916;2023-03-31T18:44:43;97829.89;;;10.13;82.62
76753;BME280;65687;51.308;16.916;2023-03-31T18:49:45;97827.45;;;10.11;82.55
76753;BME280;65687;51.308;16.916;2023-03-31T18:54:48;97828.74;;;10.10;82.59
76753;BME280;65687;51.308;16.916;2023-03-31T18:59:51;97816.98;;;10.11;82.24
76753;BME280;65687;51.308;16.916;2023-03-31T19:04:52;97811.74;;;10.16;81.93
76753;BME280;65687;51.308;16.916;2023-03-31T19:09:56;97814.63;;;10.17;81.53
76753;BME280;65687;51.308;16.916;2023-03-31T19:14:57;97812.69;;;10.13;81.46
76753;BME280;65687;51.308;16.916;2023-03-31T19:19:59;97817.90;;;10.08;81.33
76753;BME280;65687;51.308;16.916;2023-03-31T19:25:01;97819.25;;;9.98;81.37
76753;BME280;65687;51.308;16.916;2023-03-31T19:30:03;97821.06;;;9.88;81.42
76753;BME280;65687;51.308;16.916;2023-03-31T19:35:05;97826.58;;;9.77;81.41
76753;BME280;65687;51.308;16.916;2023-03-31T19:40:07;97832.48;;;9.68;81.57
76753;BME280;65687;51.308;16.916;2023-03-31T19:45:09;97836.60;;;9.60;81.59
76753;BME280;65687;51.308;16.916;2023-03-31T19:50:10;97844.27;;;9.54;81.55
76753;BME280;65687;51.308;16.916;2023-03-31T19:55:13;97846.36;;;9.51;81.24
76753;BME280;65687;51.308;16.916;2023-03-31T20:00:15;97850.29;;;9.39;81.36
76753;BME280;65687;51.308;16.916;2023-03-31T20:05:18;97851.79;;;9.30;81.30
76753;BME280;65687;51.308;16.916;2023-03-31T20:10:19;97854.61;;;9.24;81.23
76753;BME280;65687;51.308;16.916;2023-03-31T20:15:21;97854.66;;;9.21;81.07
76753;BME280;65687;51.308;16.916;2023-03-31T20:20:23;97849.30;;;9.17;81.22
76753;BME280;65687;51.308;16.916;2023-03-31T20:25:25;97854.13;;;9.12;81.03
76753;BME280;65687;51.308;16.916;2023-03-31T20:30:27;97859.80;;;9.02;81.21
76753;BME280;65687;51.308;16.916;2023-03-31T20:35:28;97862.16;;;8.98;81.27
76753;BME280;65687;51.308;16.916;2023-03-31T20:40:30;97862.76;;;8.91;81.21
76753;BME280;65687;51.308;16.916;2023-03-31T20:45:32;97855.25;;;8.84;81.64
76753;BME280;65687;51.308;16.916;2023-03-31T20:50:34;97852.10;;;8.81;81.52
76753;BME280;65687;51.308;16.916;2023-03-31T20:55:38;97858.54;;;8.74;81.82
76753;BME280;65687;51.308;16.916;2023-03-31T21:00:40;97861.96;;;8.67;81.79
76753;BME280;65687;51.308;16.916;2023-03-31T21:05:43;97867.64;;;8.63;82.09
76753;BME280;65687;51.308;16.916;2023-03-31T21:10:45;97873.44;;;8.60;82.39
76753;BME280;65687;51.308;16.916;2023-03-31T21:15:47;97877.64;;;8.60;82.55
76753;BME280;65687;51.308;16.916;2023-03-31T21:21:02;97877.55;;;8.57;82.77
76753;BME280;65687;51.308;16.916;2023-03-31T21:26:08;97873.02;;;8.62;82.35
76753;BME280;65687;51.308;16.916;2023-03-31T21:31:13;97866.25;;;8.69;82.14
76753;BME280;65687;51.308;16.916;2023-03-31T21:36:20;97862.75;;;8.74;81.96
76753;BME280;65687;51.308;16.916;2023-03-31T21:41:25;97863.23;;;8.70;81.70
76753;BME280;65687;51.308;16.916;2023-03-31T21:46:29;97861.95;;;8.67;81.45
76753;BME280;65687;51.308;16.916;2023-03-31T21:51:30;97863.77;;;8.62;81.47
76753;BME280;65687;51.308;16.916;2023-03-31T21:56:33;97870.09;;;8.56;81.30
76753;BME280;65687;51.308;16.916;2023-03-31T22:01:34;97872.35;;;8.54;81.47
76753;BME280;65687;51.308;16.916;2023-03-31T22:06:36;97876.50;;;8.53;81.23
76753;BME280;65687;51.308;16.916;2023-03-31T22:11:39;97881.58;;;8.49;81.45
76753;BME280;65687;51.308;16.916;2023-03-31T22:16:41;97885.47;;;8.41;81.62
76753;BME280;65687;51.308;16.916;2023-03-31T22:21:42;97886.11;;;8.33;81.84
76753;BME280;65687;51.308;16.916;2023-03-31T22:26:45;97890.94;;;8.29;81.74
76753;BME280;65687;51.308;16.916;2023-03-31T22:31:46;97900.06;;;8.26;81.95
76753;BME280;65687;51.308;16.916;2023-03-31T22:36:48;97896.20;;;8.18;81.91
76753;BME280;65687;51.308;16.916;2023-03-31T22:41:50;97894.31;;;8.09;82.08
76753;BME280;65687;51.308;16.916;2023-03-31T22:46:51;97893.13;;;8.01;82.41
76753;BME280;65687;51.308;16.916;2023-03-31T22:51:53;97889.57;;;7.93;82.53
76753;BME280;65687;51.308;16.916;2023-03-31T22:56:54;97885.75;;;7.87;82.69
76753;BME280;65687;51.308;16.916;2023-03-31T23:01:57;97889.95;;;7.83;82.92
76753;BME280;65687;51.308;16.916;2023-03-31T23:06:59;97888.02;;;7.77;82.84
76753;BME280;65687;51.308;16.916;2023-03-31T23:12:00;97889.05;;;7.73;82.95
76753;BME280;65687;51.308;16.916;2023-03-31T23:17:02;97892.17;;;7.76;82.94
76753;BME280;65687;51.308;16.916;2023-03-31T23:22:03;97889.73;;;7.81;82.98
76753;BME280;65687;51.308;16.916;2023-03-31T23:27:06;97881.39;;;7.87;82.88
76753;BME280;65687;51.308;16.916;2023-03-31T23:32:08;97875.43;;;7.89;82.90
76753;BME280;65687;51.308;16.916;2023-03-31T23:37:11;97868.39;;;7.89;82.76
76753;BME280;65687;51.308;16.916;2023-03-31T23:42:13;97863.81;;;7.88;82.78
76753;BME280;65687;51.308;16.916;2023-03-31T23:47:19;97863.02;;;7.89;82.72
76753;BME280;65687;51.308;16.916;2023-03-31T23:52:21;97859.55;;;7.87;82.73
76753;BME280;65687;51.308;16.916;2023-03-31T23:57:24;97854.80;;;7.82;82.40
